Time;durP1;ratioP1;P1;durP2;ratioP2;P2;SDS_P1;SDS_P2;PMS_P1;PMS_P2;Temp;Humidity;BMP_temperature;BMP_pressure;BME280_temperature;BME280_humidity;BME280_pressure;Samples;Min_cycle;Max_cycle;Signal;HPM_P1;HPM_P2
2022/07/08 00:01:50;;;;;;;13.80;3.05;;;;;;;15.11;74.33;102868.50;4990133;28;20365;-74
2022/07/08 00:04:16;;;;;;;9.90;2.58;;;;;;;15.14;74.21;102868.06;5008736;28;20026;-75
2022/07/08 00:06:41;;;;;;;8.77;2.45;;;;;;;15.07;74.03;102866.19;4992304;28;20092;-75
2022/07/08 00:09:07;;;;;;;10.77;2.50;;;;;;;15.11;73.71;102872.03;4993377;28;20135;-74
2022/07/08 00:11:32;;;;;;;13.48;2.88;;;;;;;15.10;74.40;102874.97;5005080;28;20026;-74
2022/07/08 00:13:58;;;;;;;12.55;2.60;;;;;;;15.12;74.86;102870.19;4973863;28;20421;-75
2022/07/08 00:16:23;;;;;;;10.55;2.60;;;;;;;15.05;74.47;102875.59;4977093;28;20451;-75
2022/07/08 00:18:48;;;;;;;10.48;2.17;;;;;;;15.03;74.26;102877.69;4976150;28;20038;-75
2022/07/08 00:21:13;;;;;;;8.30;2.28;;;;;;;14.95;74.44;102873.28;4972228;28;20025;-74
2022/07/08 00:23:39;;;;;;;15.48;2.88;;;;;;;14.86;75.26;102866.34;4973799;28;20106;-75
2022/07/08 00:26:04;;;;;;;9.27;2.83;;;;;;;14.86;75.33;102869.88;4975779;28;20030;-74
2022/07/08 00:28:29;;;;;;;9.15;2.70;;;;;;;14.83;75.33;102861.28;4992873;28;20437;-74
2022/07/08 00:30:55;;;;;;;10.75;2.70;;;;;;;14.81;75.25;102861.50;4986020;28;20027;-74
2022/07/08 00:33:20;;;;;;;10.88;2.50;;;;;;;14.78;75.54;102867.34;4973625;28;20447;-75
2022/07/08 00:35:45;;;;;;;11.13;2.53;;;;;;;14.76;75.55;102865.88;4972143;28;20126;-74
2022/07/08 00:38:11;;;;;;;13.48;3.10;;;;;;;14.74;75.27;102871.53;5009578;28;20021;-75
2022/07/08 00:40:36;;;;;;;9.18;2.50;;;;;;;14.76;76.38;102877.59;5012673;28;20054;-74
2022/07/08 00:43:01;;;;;;;6.68;2.38;;;;;;;14.80;76.36;102872.59;5013186;28;20053;-75
2022/07/08 00:45:27;;;;;;;11.63;2.38;;;;;;;14.84;75.92;102863.81;5012573;28;20022;-74
2022/07/08 00:47:53;;;;;;;10.02;2.80;;;;;;;14.86;76.23;102869.88;4994638;28;20038;-75
2022/07/08 00:50:18;;;;;;;12.05;2.75;;;;;;;14.88;75.81;102867.78;5002372;28;20037;-75
2022/07/08 00:52:45;;;;;;;7.25;2.50;;;;;;;14.88;75.31;102875.97;4991678;28;20121;-75
2022/07/08 00:55:10;;;;;;;11.02;2.33;;;;;;;14.84;75.36;102874.72;4993126;28;20034;-74
2022/07/08 00:57:38;;;;;;;11.30;2.25;;;;;;;14.85;74.93;102873.66;4990571;28;20063;-74
2022/07/08 01:00:04;;;;;;;9.25;2.55;;;;;;;14.82;75.69;102879.50;4992817;28;20026;-75
2022/07/08 01:02:29;;;;;;;11.30;2.35;;;;;;;14.80;75.62;102872.59;4990569;28;20041;-74
2022/07/08 01:04:55;;;;;;;11.32;2.38;;;;;;;14.75;77.07;102878.66;5007812;28;20030;-74
2022/07/08 01:07:22;;;;;;;9.60;2.60;;;;;;;14.73;75.99;102871.72;4992094;28;20077;-75
2022/07/08 01:09:47;;;;;;;11.98;2.65;;;;;;;14.74;76.73;102878.88;4991887;28;20081;-75
2022/07/08 01:12:13;;;;;;;10.32;2.63;;;;;;;14.67;77.79;102878.81;4992959;28;20030;-74
2022/07/08 01:14:45;;;;;;;13.82;2.85;;;;;;;14.58;77.24;102875.38;4991118;28;20018;-75
2022/07/08 01:17:19;;;;;;;13.82;2.30;;;;;;;14.52;76.99;102881.66;4989996;28;20393;-74
2022/07/08 01:19:54;;;;;;;13.20;3.03;;;;;;;14.51;78.10;102874.53;4990943;28;20026;-74
2022/07/08 01:22:30;;;;;;;9.18;2.60;;;;;;;14.47;78.41;102871.34;4991428;28;20027;-74
2022/07/08 01:25:05;;;;;;;12.27;2.67;;;;;;;14.40;78.27;102867.75;4991135;28;20470;-74
2022/07/08 01:27:33;;;;;;;13.80;2.75;;;;;;;14.30;79.68;102873.56;5005038;28;20023;-74
2022/07/08 01:29:59;;;;;;;6.95;2.13;;;;;;;14.30;79.96;102870.84;4991074;28;20058;-74
2022/07/08 01:32:33;;;;;;;11.25;2.92;;;;;;;14.33;79.99;102867.72;5010282;28;20050;-74
2022/07/08 01:34:58;;;;;;;9.90;2.50;;;;;;;14.27;79.48;102873.97;4980895;28;20026;-74
2022/07/08 01:37:24;;;;;;;11.95;3.22;;;;;;;14.25;80.47;102869.75;5008751;28;20033;-74
2022/07/08 01:39:49;;;;;;;11.50;2.90;;;;;;;14.17;81.09;102873.50;5014631;28;20022;-74
2022/07/08 01:42:15;;;;;;;8.85;2.55;;;;;;;14.15;81.41;102873.69;5014571;28;20022;-74
2022/07/08 01:44:40;;;;;;;13.70;2.65;;;;;;;14.16;81.26;102874.53;5014279;28;20021;-74
2022/07/08 01:47:07;;;;;;;16.35;3.05;;;;;;;14.08;81.80;102870.06;4997325;28;20076;-74
2022/07/08 01:49:41;;;;;;;12.68;2.80;;;;;;;14.01;82.29;102866.50;4994566;28;20030;-74
2022/07/08 01:52:14;;;;;;;9.80;2.80;;;;;;;14.07;82.06;102867.56;4994652;28;20022;-74
2022/07/08 01:54:50;;;;;;;9.18;2.40;;;;;;;14.06;82.06;102860.44;4994408;28;20026;-74
2022/07/08 01:57:15;;;;;;;10.68;2.83;;;;;;;14.06;81.82;102849.56;5007073;28;20061;-74
2022/07/08 01:59:45;;;;;;;10.50;2.90;;;;;;;14.01;82.56;102858.31;5014067;28;20018;-74
2022/07/08 02:02:12;;;;;;;10.10;2.63;;;;;;;13.94;83.76;102860.97;5011904;28;20112;-74
2022/07/08 02:04:38;;;;;;;8.85;2.40;;;;;;;13.94;84.02;102860.16;5015317;28;20484;-74
2022/07/08 02:07:03;;;;;;;12.00;2.85;;;;;;;13.84;85.50;102860.47;4988814;28;20023;-74
2022/07/08 02:09:29;;;;;;;10.68;2.70;;;;;;;13.83;85.48;102866.97;4991089;28;20562;-74
2022/07/08 02:14:38;;;;;;;10.88;3.15;;;;;;;13.85;84.65;102864.91;4975872;28;20092;-75
2022/07/08 02:17:03;;;;;;;10.85;2.85;;;;;;;13.89;85.27;102871.63;4988720;28;20061;-73
2022/07/08 02:19:29;;;;;;;10.63;3.08;;;;;;;13.82;87.06;102865.28;4995533;28;20085;-73
2022/07/08 02:21:55;;;;;;;12.32;2.95;;;;;;;13.93;86.18;102872.91;4995621;28;20031;-77
2022/07/08 02:24:20;;;;;;;12.57;3.15;;;;;;;13.86;86.83;102869.31;4995849;28;20422;-75
2022/07/08 02:26:45;;;;;;;14.50;3.10;;;;;;;13.91;84.33;102875.00;5002039;28;20587;-74
2022/07/08 02:29:11;;;;;;;12.80;3.33;;;;;;;13.90;84.29;102867.84;5014773;28;20025;-78
2022/07/08 02:31:39;;;;;;;9.70;3.00;;;;;;;13.92;84.73;102871.25;5013597;28;20366;-78
2022/07/08 02:34:04;;;;;;;11.00;3.05;;;;;;;13.88;84.61;102863.66;5014916;28;20065;-74
2022/07/08 02:36:29;;;;;;;15.38;2.97;;;;;;;13.88;84.47;102869.09;5011776;28;20529;-73
2022/07/08 02:38:55;;;;;;;9.38;2.72;;;;;;;13.85;84.94;102875.78;5012375;28;20041;-74
2022/07/08 02:41:20;;;;;;;12.93;3.15;;;;;;;13.86;84.62;102874.75;5014865;28;20436;-74
2022/07/08 02:43:45;;;;;;;12.23;3.72;;;;;;;13.85;84.72;102873.06;5014009;28;20113;-74
2022/07/08 02:46:11;;;;;;;12.68;3.00;;;;;;;13.84;84.21;102874.09;4987542;28;20030;-74
2022/07/08 02:48:36;;;;;;;11.40;2.90;;;;;;;13.81;86.88;102871.75;5014489;28;20108;-74
2022/07/08 02:51:02;;;;;;;10.90;3.05;;;;;;;13.84;86.19;102874.09;5014377;28;20475;-74
2022/07/08 02:53:28;;;;;;;11.07;2.90;;;;;;;13.83;86.21;102866.97;5014606;28;20108;-74
2022/07/08 02:55:53;;;;;;;12.15;2.75;;;;;;;13.77;85.56;102863.16;5009693;28;20058;-74
2022/07/08 02:58:18;;;;;;;10.93;2.88;;;;;;;13.74;86.28;102863.56;4994862;28;20105;-74
2022/07/08 03:00:44;;;;;;;10.77;3.25;;;;;;;13.80;85.56;102867.38;4991106;28;20129;-74
2022/07/08 03:03:09;;;;;;;9.93;3.00;;;;;;;13.81;85.18;102879.94;4993787;28;20038;-74
2022/07/08 03:05:34;;;;;;;10.13;2.92;;;;;;;13.77;85.37;102870.50;4993228;28;20145;-74
2022/07/08 03:08:00;;;;;;;9.18;2.70;;;;;;;13.74;86.99;102873.59;4974047;28;20528;-74
2022/07/08 03:10:25;;;;;;;9.85;2.72;;;;;;;13.77;86.05;102878.66;4975231;28;20026;-74
2022/07/08 03:12:50;;;;;;;10.05;3.25;;;;;;;13.72;89.09;102872.94;4975294;28;20025;-74
2022/07/08 03:15:16;;;;;;;8.40;2.60;;;;;;;13.74;86.05;102879.03;4973893;28;20477;-74
2022/07/08 03:17:41;;;;;;;8.30;2.72;;;;;;;13.80;87.35;102883.72;5007215;28;20077;-74
2022/07/08 03:20:07;;;;;;;13.40;3.60;;;;;;;13.80;85.67;102889.16;5012799;28;20055;-74
2022/07/08 03:22:34;;;;;;;11.30;2.85;;;;;;;13.81;85.16;102883.50;5006583;28;20034;-74
2022/07/08 03:24:59;;;;;;;10.93;2.90;;;;;;;13.81;85.22;102879.94;4974998;28;20109;-74
2022/07/08 03:27:24;;;;;;;7.50;2.50;;;;;;;13.80;86.02;102873.66;4988467;28;20122;-74
2022/07/08 03:29:50;;;;;;;8.65;2.70;;;;;;;13.81;84.44;102878.06;5008271;28;20073;-74
2022/07/08 03:32:15;;;;;;;11.55;2.90;;;;;;;13.77;85.20;102874.06;5009075;28;20026;-74
2022/07/08 03:34:40;;;;;;;11.32;2.70;;;;;;;13.75;84.48;102880.72;4993691;28;20484;-74
2022/07/08 03:37:06;;;;;;;14.43;2.55;;;;;;;13.70;84.85;102878.59;5002672;28;20049;-74
2022/07/08 03:39:31;;;;;;;8.95;2.65;;;;;;;13.67;85.25;102886.31;5011154;28;20071;-74
2022/07/08 03:41:56;;;;;;;8.27;2.53;;;;;;;13.62;87.67;102886.91;5003054;28;20034;-75
2022/07/08 03:44:21;;;;;;;11.35;3.25;;;;;;;13.61;87.92;102888.75;4974978;28;20063;-74
2022/07/08 03:46:47;;;;;;;9.10;2.38;;;;;;;13.60;87.32;102888.94;4988775;28;20031;-74
2022/07/08 03:49:12;;;;;;;8.00;2.58;;;;;;;13.59;86.03;102888.13;4974297;28;20065;-74
2022/07/08 03:51:37;;;;;;;9.40;2.60;;;;;;;13.60;86.01;102884.38;4974337;28;20035;-74
2022/07/08 03:54:03;;;;;;;9.52;2.70;;;;;;;13.56;85.96;102888.50;4972955;28;20026;-74
2022/07/08 03:56:28;;;;;;;10.88;3.08;;;;;;;13.52;85.94;102884.50;4979542;28;20088;-74
2022/07/08 03:58:53;;;;;;;13.30;3.65;;;;;;;13.52;86.52;102886.38;4992259;28;20369;-74
2022/07/08 04:01:19;;;;;;;11.40;3.30;;;;;;;13.52;86.81;102889.94;4990184;28;20030;-74
2022/07/08 04:03:44;;;;;;;11.48;2.60;;;;;;;13.52;85.68;102887.22;4991082;28;20041;-74
2022/07/08 04:06:09;;;;;;;14.93;2.75;;;;;;;13.47;86.49;102887.81;4996634;28;20038;-74
2022/07/08 04:08:34;;;;;;;12.93;2.97;;;;;;;13.49;86.81;102882.16;5011763;28;20524;-74
2022/07/08 04:11:00;;;;;;;14.77;2.95;;;;;;;13.51;86.36;102890.97;5012991;28;20458;-74
2022/07/08 04:13:27;;;;;;;9.82;2.90;;;;;;;13.53;86.76;102885.34;5011972;28;20036;-74
2022/07/08 04:15:56;;;;;;;11.57;3.20;;;;;;;13.49;87.68;102895.75;5009272;28;20076;-74
2022/07/08 04:18:21;;;;;;;13.20;2.80;;;;;;;13.54;88.53;102887.03;4972637;28;20052;-74
2022/07/08 04:20:47;;;;;;;11.77;2.90;;;;;;;13.52;87.33;102892.66;4973890;28;20027;-74
2022/07/08 04:23:13;;;;;;;9.15;2.58;;;;;;;13.49;88.02;102887.59;4973811;28;20433;-74
2022/07/08 04:25:38;;;;;;;14.90;2.70;;;;;;;13.52;88.12;102892.66;4972448;28;20513;-74
2022/07/08 04:28:03;;;;;;;12.38;3.10;;;;;;;13.50;88.35;102889.28;4990469;28;20050;-74
2022/07/08 04:30:29;;;;;;;8.50;2.80;;;;;;;13.49;88.61;102875.88;4993075;28;20026;-74
2022/07/08 04:32:54;;;;;;;8.88;2.92;;;;;;;13.51;88.98;102885.53;5008160;28;20507;-74
2022/07/08 04:35:20;;;;;;;11.13;3.20;;;;;;;13.50;88.54;102894.75;4991907;28;20050;-74
2022/07/08 04:37:46;;;;;;;12.95;3.50;;;;;;;13.52;88.92;102902.69;5007152;28;20034;-74
2022/07/08 04:40:11;;;;;;;12.65;3.55;;;;;;;13.46;88.77;102901.59;5012989;28;20034;-74
2022/07/08 04:42:36;;;;;;;10.98;3.10;;;;;;;13.40;89.99;102905.09;5011343;28;20025;-74
2022/07/08 04:45:03;;;;;;;11.77;3.60;;;;;;;13.43;89.91;102915.59;5012650;28;20026;-74
2022/07/08 04:47:28;;;;;;;15.60;3.70;;;;;;;13.39;90.92;102920.56;4991313;28;20034;-74
2022/07/08 04:49:53;;;;;;;8.57;3.28;;;;;;;13.37;90.56;102916.34;4991733;28;20428;-74
2022/07/08 04:52:19;;;;;;;14.43;3.75;;;;;;;13.38;91.33;102912.59;5008301;28;20029;-74
2022/07/08 04:54:44;;;;;;;10.05;3.47;;;;;;;13.39;90.84;102920.56;5007997;28;20038;-74
2022/07/08 04:57:09;;;;;;;11.15;3.33;;;;;;;13.39;91.24;102920.56;4992000;28;20065;-74
2022/07/08 04:59:35;;;;;;;11.85;3.83;;;;;;;13.45;90.27;102919.78;4992873;28;20045;-74
2022/07/08 05:02:00;;;;;;;12.25;3.58;;;;;;;13.52;90.26;102924.47;4990558;28;20040;-74
2022/07/08 05:04:26;;;;;;;14.63;3.80;;;;;;;13.56;89.81;102929.31;4993097;28;20422;-74
2022/07/08 05:06:51;;;;;;;12.20;3.88;;;;;;;13.65;88.04;102927.31;4993389;28;20038;-74
2022/07/08 05:09:16;;;;;;;11.13;3.47;;;;;;;13.64;88.25;102923.72;4994497;28;20450;-74
2022/07/08 05:11:42;;;;;;;18.85;4.05;;;;;;;13.68;88.35;102928.78;4982958;28;20031;-74
2022/07/08 05:14:07;;;;;;;12.90;3.90;;;;;;;13.76;87.54;102931.38;4977368;28;20446;-74
2022/07/08 05:16:33;;;;;;;14.43;3.63;;;;;;;13.73;88.20;102932.59;4981500;28;20038;-74
2022/07/08 05:18:58;;;;;;;16.23;3.58;;;;;;;13.77;88.46;102927.63;4995265;28;20355;-74
2022/07/08 05:21:23;;;;;;;12.93;4.00;;;;;;;13.72;88.71;102935.53;4997061;28;20022;-74
2022/07/08 05:23:49;;;;;;;14.40;4.63;;;;;;;13.72;90.37;102940.97;4995009;28;20022;-74
2022/07/08 05:26:14;;;;;;;12.75;4.03;;;;;;;13.73;89.62;102937.22;5015225;28;20034;-74
2022/07/08 05:28:39;;;;;;;13.55;3.90;;;;;;;13.74;89.15;102944.31;5014814;28;20025;-74
2022/07/08 05:31:05;;;;;;;10.82;3.92;;;;;;;13.75;89.66;102948.75;5016207;28;20080;-74
2022/07/08 05:33:30;;;;;;;12.02;4.03;;;;;;;13.77;89.24;102946.69;5014749;28;20029;-75
2022/07/08 05:35:55;;;;;;;12.77;4.22;;;;;;;13.74;89.14;102952.50;4996478;28;20485;-74
2022/07/08 05:38:20;;;;;;;13.40;4.35;;;;;;;13.79;90.58;102952.75;4996363;28;20065;-74
2022/07/08 05:40:46;;;;;;;13.73;4.40;;;;;;;13.84;89.14;102955.72;4994922;28;20116;-74
2022/07/08 05:43:11;;;;;;;14.15;4.88;;;;;;;13.91;90.21;102951.19;4990824;28;20037;-73
2022/07/08 05:45:36;;;;;;;14.65;4.18;;;;;;;14.04;90.44;102957.78;4987223;28;20025;-74
2022/07/08 05:48:01;;;;;;;14.00;4.55;;;;;;;14.12;90.29;102957.66;5013856;28;20018;-74
2022/07/08 05:50:27;;;;;;;18.02;4.80;;;;;;;14.20;88.25;102964.84;5015283;28;20062;-75
2022/07/08 05:52:52;;;;;;;13.13;4.03;;;;;;;14.29;88.60;102959.03;5014827;28;20045;-74
2022/07/08 05:55:18;;;;;;;13.93;4.28;;;;;;;14.28;87.14;102962.81;5003024;28;20041;-75
2022/07/08 05:57:43;;;;;;;18.63;4.28;;;;;;;14.36;87.17;102962.66;4995876;28;20104;-73
2022/07/08 06:00:09;;;;;;;8.93;3.42;;;;;;;14.46;87.36;102969.63;4994788;28;20421;-74
2022/07/08 06:02:34;;;;;;;14.25;3.78;;;;;;;14.58;85.74;102968.03;4993691;28;20037;-74
2022/07/08 06:04:59;;;;;;;15.68;3.40;;;;;;;14.65;82.93;102974.41;4993128;28;20110;-75
2022/07/08 06:07:25;;;;;;;16.75;3.28;;;;;;;14.75;84.50;102973.19;5009163;28;20030;-75
2022/07/08 06:09:50;;;;;;;19.30;3.63;;;;;;;14.81;83.78;102973.25;4995271;28;20106;-74
2022/07/08 06:12:15;;;;;;;9.98;2.47;;;;;;;14.93;81.78;102972.66;4995830;28;20038;-74
2022/07/08 06:14:40;;;;;;;11.50;3.17;;;;;;;14.96;82.87;102972.25;4999105;28;20024;-73
2022/07/08 06:17:06;;;;;;;12.30;2.70;;;;;;;15.03;82.58;102975.84;5015141;28;20480;-73
2022/07/08 06:19:31;;;;;;;13.23;2.85;;;;;;;15.04;80.35;102975.66;5013294;28;20072;-73
2022/07/08 06:21:56;;;;;;;19.98;2.80;;;;;;;15.10;80.89;102978.59;5015007;28;20029;-73
2022/07/08 06:24:22;;;;;;;10.25;2.42;;;;;;;15.15;81.00;102978.84;5011934;28;20445;-73
2022/07/08 06:26:48;;;;;;;18.77;2.70;;;;;;;15.14;79.04;102980.75;5008275;28;20018;-71
2022/07/08 06:29:20;;;;;;;11.68;2.55;;;;;;;15.22;80.59;102979.72;5008851;28;20132;-74
2022/07/08 06:31:55;;;;;;;17.85;3.55;;;;;;;15.28;80.10;102976.19;5012711;28;20026;-72
2022/07/08 06:34:22;;;;;;;13.95;2.22;;;;;;;15.31;78.30;102972.19;5013348;28;20036;-73
2022/07/08 06:36:49;;;;;;;15.85;2.60;;;;;;;15.36;77.59;102973.25;5014492;28;20025;-75
2022/07/08 06:39:14;;;;;;;10.70;2.22;;;;;;;15.39;77.91;102970.09;5010857;28;20013;-75
2022/07/08 06:41:39;;;;;;;10.98;2.50;;;;;;;15.41;78.27;102980.81;5014625;28;20029;-74
2022/07/08 06:44:05;;;;;;;12.07;2.28;;;;;;;15.46;77.74;102974.75;5014628;28;20073;-74
2022/07/08 06:46:33;;;;;;;10.88;2.53;;;;;;;15.54;76.64;102977.28;5004326;28;20035;-78
2022/07/08 06:49:42;;;;;;;11.50;2.17;;;;;;;15.54;77.59;102983.59;4988273;28;20201;-78
2022/07/08 06:52:16;;;;;;;12.43;2.80;;;;;;;15.64;75.44;102988.66;4997124;28;20041;-80
2022/07/08 06:54:41;;;;;;;9.40;2.58;;;;;;;15.70;75.91;102985.09;5014521;28;20091;-82
2022/07/08 06:57:07;;;;;;;9.27;1.98;;;;;;;15.73;76.10;102987.41;5013180;28;20026;-76
2022/07/08 06:59:37;;;;;;;13.45;2.10;;;;;;;15.80;74.61;102986.63;5004890;28;20054;-76
2022/07/08 07:02:03;;;;;;;12.68;2.50;;;;;;;15.84;74.82;102988.72;4986937;28;20040;-76
2022/07/08 07:04:28;;;;;;;9.93;2.03;;;;;;;15.81;73.79;102982.84;4991122;28;20030;-75
2022/07/08 07:06:54;;;;;;;10.82;2.33;;;;;;;15.82;74.91;102987.22;4975108;28;20035;-75
2022/07/08 07:09:19;;;;;;;13.65;2.20;;;;;;;15.87;74.20;102996.50;4974266;28;20027;-72
2022/07/08 07:11:45;;;;;;;10.40;2.53;;;;;;;15.87;73.33;102992.94;4988870;28;20104;-73
2022/07/08 07:14:10;;;;;;;10.07;2.20;;;;;;;15.93;72.98;102998.38;4984759;28;20080;-73
2022/07/08 07:16:35;;;;;;;12.40;2.42;;;;;;;15.98;73.07;103000.50;4978219;28;20077;-73
2022/07/08 07:19:01;;;;;;;8.48;1.92;;;;;;;15.97;72.80;102996.06;4986684;28;20022;-72
2022/07/08 07:21:26;;;;;;;11.00;2.03;;;;;;;15.98;73.29;102986.84;4994217;28;20023;-72
2022/07/08 07:23:51;;;;;;;15.57;2.13;;;;;;;16.08;73.28;102989.16;4994410;28;20033;-72
2022/07/08 07:26:17;;;;;;;11.35;2.13;;;;;;;16.20;72.97;102992.09;4994211;28;20091;-72
2022/07/08 07:28:42;;;;;;;9.32;2.10;;;;;;;16.16;71.72;102991.69;4991468;28;20109;-72
2022/07/08 07:31:07;;;;;;;6.28;1.80;;;;;;;16.17;71.83;102992.50;4993990;28;20026;-72
2022/07/08 07:33:33;;;;;;;7.78;2.25;;;;;;;16.15;71.74;102995.44;4994118;28;20485;-71
2022/07/08 07:35:59;;;;;;;9.95;2.25;;;;;;;16.14;71.87;102993.78;4982505;28;20118;-73
2022/07/08 07:38:24;;;;;;;9.43;2.05;;;;;;;16.18;72.13;102995.03;4974318;28;20027;-73
2022/07/08 07:40:50;;;;;;;13.40;2.40;;;;;;;16.27;71.30;102993.78;4974231;28;20052;-71
2022/07/08 07:43:15;;;;;;;12.43;2.75;;;;;;;16.25;71.73;102992.31;4974206;28;20040;-72
2022/07/08 07:45:40;;;;;;;14.05;2.58;;;;;;;16.35;72.18;102990.00;4988267;28;20109;-72
2022/07/08 07:48:05;;;;;;;10.85;2.20;;;;;;;16.40;71.93;102987.47;4980787;28;20078;-73
2022/07/08 07:50:31;;;;;;;9.50;1.90;;;;;;;16.53;72.68;102991.22;4993381;28;20034;-72
2022/07/08 07:52:56;;;;;;;10.45;2.60;;;;;;;16.60;70.67;102994.78;4991826;28;21681;-72
2022/07/08 07:55:21;;;;;;;8.25;2.58;;;;;;;16.63;70.97;102986.97;4992616;28;20398;-73
2022/07/08 07:57:48;;;;;;;10.07;2.10;;;;;;;16.66;70.87;102983.81;4992169;28;20033;-72
2022/07/08 08:00:15;;;;;;;10.63;2.40;;;;;;;16.78;71.42;102981.28;4979634;28;20454;-72
2022/07/08 08:02:41;;;;;;;9.82;1.90;;;;;;;16.78;70.75;102980.44;4971870;28;20026;-72
2022/07/08 08:05:08;;;;;;;11.65;2.75;;;;;;;16.87;70.59;102975.63;4989166;28;20117;-71
2022/07/08 08:07:33;;;;;;;13.52;2.22;;;;;;;16.86;69.52;102984.84;4973707;28;20031;-72
2022/07/08 08:09:58;;;;;;;13.05;2.33;;;;;;;16.91;68.67;102985.06;4982146;28;20157;-72
2022/07/08 08:12:24;;;;;;;10.55;2.30;;;;;;;16.95;69.46;102995.38;4979246;28;20030;-72
2022/07/08 08:14:49;;;;;;;9.35;2.45;;;;;;;16.81;68.67;102991.78;4985332;28;20546;-73
2022/07/08 08:17:15;;;;;;;6.97;2.22;;;;;;;16.89;69.91;102985.28;4973850;28;20049;-72
2022/07/08 08:19:40;;;;;;;9.40;2.28;;;;;;;17.01;69.70;103004.59;4974716;28;20417;-72
2022/07/08 08:22:05;;;;;;;10.77;2.05;;;;;;;17.03;68.23;102986.09;4973903;28;20106;-72
2022/07/08 08:24:30;;;;;;;11.55;2.50;;;;;;;17.14;68.79;102998.25;4973339;28;20031;-72
2022/07/08 08:26:56;;;;;;;11.73;2.30;;;;;;;17.13;66.94;102991.09;4972660;28;20025;-72
2022/07/08 08:29:21;;;;;;;11.05;2.15;;;;;;;17.17;67.44;102993.16;4973074;28;20471;-72
2022/07/08 08:31:46;;;;;;;8.80;2.03;;;;;;;17.10;66.47;102986.88;4977300;28;20133;-72
2022/07/08 08:34:12;;;;;;;13.43;1.95;;;;;;;17.22;66.09;102999.88;4992902;28;20025;-72
2022/07/08 08:36:37;;;;;;;8.02;1.90;;;;;;;17.20;65.38;102996.53;4991309;28;20587;-71
2022/07/08 08:39:02;;;;;;;6.60;1.90;;;;;;;17.26;65.92;102998.41;4993048;28;20080;-72
2022/07/08 08:41:28;;;;;;;11.75;2.22;;;;;;;17.38;65.95;103001.28;4992024;28;20041;-72
2022/07/08 08:43:53;;;;;;;9.57;1.88;;;;;;;17.41;64.51;102998.09;4983965;28;20077;-72
2022/07/08 08:46:22;;;;;;;13.40;2.53;;;;;;;17.45;64.47;102992.00;4973210;28;20367;-72
2022/07/08 08:48:48;;;;;;;11.15;2.83;;;;;;;17.47;65.72;103002.72;4976510;28;20094;-73
2022/07/08 08:51:20;;;;;;;9.35;2.17;;;;;;;17.35;65.15;102994.34;5007931;28;20027;-71
2022/07/08 08:53:47;;;;;;;;;;;;;;;17.45;66.66;102983.78;4993602;28;20078;-72
2022/07/08 08:56:14;;;;;;;8.57;1.92;;;;;;;17.37;66.17;102984.03;4992967;28;20009;-71
2022/07/08 08:58:41;;;;;;;10.10;2.47;;;;;;;17.44;67.57;102979.34;4993012;28;20033;-72
2022/07/08 09:01:07;;;;;;;8.88;1.70;;;;;;;17.57;67.04;102974.84;4989847;28;20365;-72
2022/07/08 09:03:33;;;;;;;11.65;2.30;;;;;;;17.60;66.21;102980.72;4993198;28;20084;-73
2022/07/08 09:05:58;;;;;;;10.98;2.10;;;;;;;17.71;66.18;102971.81;4992914;28;20485;-73
2022/07/08 09:08:23;;;;;;;14.05;2.20;;;;;;;17.74;65.72;102976.03;4990649;28;20034;-71
2022/07/08 09:10:49;;;;;;;13.00;2.50;;;;;;;17.79;64.54;102972.63;4993020;28;20410;-73
2022/07/08 09:13:15;;;;;;;11.00;2.13;;;;;;;17.87;65.72;102975.06;4991034;28;20026;-71
2022/07/08 09:15:50;;;;;;;11.88;2.72;;;;;;;17.91;64.56;102975.50;4972923;28;20466;-72
2022/07/08 09:18:20;;;;;;;12.88;2.35;;;;;;;17.85;64.20;102968.97;4972944;28;20089;-72
2022/07/08 09:20:51;;;;;;;9.93;1.87;;;;;;;17.97;64.61;102969.13;4973535;28;20113;-72
2022/07/08 09:23:21;;;;;;;10.63;2.00;;;;;;;18.00;64.18;102968.69;4990633;28;20289;-71
2022/07/08 09:25:49;;;;;;;11.77;2.90;;;;;;;18.03;64.40;102980.03;4992940;28;20026;-73
2022/07/08 09:28:16;;;;;;;10.65;2.28;;;;;;;18.11;64.82;102973.44;4976479;28;20041;-72
2022/07/08 09:30:45;;;;;;;10.50;2.20;;;;;;;18.21;65.81;102972.94;4981182;28;20061;-73
2022/07/08 09:33:11;;;;;;;8.38;2.10;;;;;;;18.37;65.34;102982.47;4986416;28;20034;-72
2022/07/08 09:35:38;;;;;;;11.27;2.80;;;;;;;18.34;64.09;102977.44;4993192;28;20034;-72
2022/07/08 09:38:06;;;;;;;10.05;2.30;;;;;;;18.38;64.81;102973.19;4991896;28;20061;-72
2022/07/08 09:40:31;;;;;;;11.05;2.42;;;;;;;18.53;64.78;102970.09;4989661;28;20042;-72
2022/07/08 09:42:58;;;;;;;11.23;2.60;;;;;;;18.60;64.29;102968.97;4973101;28;20367;-72
2022/07/08 09:45:31;;;;;;;8.18;2.45;;;;;;;18.54;63.20;102971.75;4973094;28;20038;-72
2022/07/08 09:48:23;;;;;;;10.10;2.40;;;;;;;18.63;64.63;102972.28;4973689;28;22041;-72
2022/07/08 09:50:49;;;;;;;13.27;2.60;;;;;;;18.67;63.07;102968.03;4977855;28;20104;-72
2022/07/08 09:53:23;;;;;;;10.88;2.28;;;;;;;18.69;63.50;102965.91;4993328;28;20117;-72
2022/07/08 09:55:53;;;;;;;7.82;2.40;;;;;;;18.76;63.25;102972.97;4996071;28;20018;-72
2022/07/08 09:58:21;;;;;;;13.50;2.42;;;;;;;18.78;63.33;102975.50;4995847;28;20434;-71
2022/07/08 10:00:48;;;;;;;22.63;2.75;;;;;;;18.86;62.81;102971.66;4993718;28;20153;-72
2022/07/08 10:03:14;;;;;;;12.57;2.05;;;;;;;18.88;62.56;102964.88;4995868;28;20037;-72
2022/07/08 10:05:40;;;;;;;10.48;1.63;;;;;;;19.00;62.50;102977.81;4995979;28;20394;-73
2022/07/08 10:08:08;;;;;;;9.05;2.30;;;;;;;19.11;62.96;102982.53;4992249;28;20042;-72
2022/07/08 10:10:34;;;;;;;9.63;2.30;;;;;;;19.04;61.78;102979.03;4995903;28;20029;-72
2022/07/08 10:13:01;;;;;;;10.23;2.05;;;;;;;19.18;62.39;102983.28;4995598;28;20026;-72
2022/07/08 10:15:29;;;;;;;9.50;2.00;;;;;;;19.35;62.44;102980.72;4982309;28;20078;-72
2022/07/08 10:17:59;;;;;;;11.68;2.40;;;;;;;19.54;63.24;102986.19;4977788;28;20042;-72
2022/07/08 10:20:27;;;;;;;11.90;2.17;;;;;;;19.56;60.83;102989.53;4986087;28;20034;-72
2022/07/08 10:22:56;;;;;;;13.55;2.38;;;;;;;19.50;61.50;102983.06;4995957;28;20354;-72
2022/07/08 10:25:24;;;;;;;8.15;2.80;;;;;;;19.46;61.33;102987.31;4995211;28;20228;-73
2022/07/08 10:27:50;;;;;;;7.63;1.80;;;;;;;19.63;62.78;102974.63;4985082;28;20444;-72
2022/07/08 10:30:18;;;;;;;10.75;2.92;;;;;;;19.66;61.32;102976.91;4984087;28;20035;-72
2022/07/08 10:32:53;;;;;;;16.13;2.40;;;;;;;19.66;61.17;102974.16;4975828;28;20034;-72
2022/07/08 10:35:20;;;;;;;10.73;2.25;;;;;;;19.67;61.49;102969.50;4975380;28;20026;-72
2022/07/08 10:37:51;;;;;;;7.47;2.00;;;;;;;19.70;61.15;102979.19;4975968;28;20052;-71
2022/07/08 10:40:42;;;;;;;10.77;2.58;;;;;;;19.66;61.05;102965.91;4995222;28;20026;-71
2022/07/08 10:43:26;;;;;;;7.53;2.10;;;;;;;19.68;61.26;102967.59;4974274;28;20126;-72
2022/07/08 10:46:00;;;;;;;8.18;2.00;;;;;;;19.79;61.39;102966.81;4975855;28;20030;-71
2022/07/08 10:48:45;;;;;;;8.43;2.20;;;;;;;19.85;60.96;102970.53;4977835;28;20124;-71
2022/07/08 10:51:20;;;;;;;8.27;2.28;;;;;;;19.82;61.06;102969.09;4984829;28;20407;-73
2022/07/08 10:53:51;;;;;;;6.75;1.88;;;;;;;19.79;60.13;102961.31;4993740;28;20030;-72
2022/07/08 10:56:53;;;;;;;8.32;2.00;;;;;;;19.74;60.87;102966.66;4990372;28;20041;-71
2022/07/08 10:59:19;;;;;;;9.88;2.22;;;;;;;19.70;60.54;102960.81;4973938;28;20041;-72
2022/07/08 11:01:53;;;;;;;7.22;1.80;;;;;;;19.71;60.74;102961.63;4973358;28;20378;-72
2022/07/08 11:04:33;;;;;;;8.55;1.88;;;;;;;19.89;61.21;102972.56;4984214;28;20057;-73
2022/07/08 11:07:32;;;;;;;5.53;1.60;;;;;;;20.03;59.97;102977.84;4994555;28;20026;-72
2022/07/08 11:10:11;;;;;;;9.25;1.80;;;;;;;20.25;58.93;102967.94;4980111;28;20026;-72
2022/07/08 11:12:46;;;;;;;5.45;1.65;;;;;;;20.45;58.39;102977.75;4989500;28;20035;-72
2022/07/08 11:15:14;;;;;;;7.88;1.90;;;;;;;20.56;57.47;102971.38;4980910;28;20088;-73
2022/07/08 11:17:41;;;;;;;8.98;2.47;;;;;;;20.51;56.94;102968.53;4991069;28;20395;-72
2022/07/08 11:20:14;;;;;;;6.55;1.67;;;;;;;20.58;57.64;102969.25;4994260;28;20026;-72
2022/07/08 11:22:42;;;;;;;9.27;2.40;;;;;;;20.81;57.51;102959.31;4994485;28;20038;-72